X  Sluiten METAR luchtvaart weer gegevens      EHGG Eelde Airport
Temperatuur
16°C Temperatuur
15°C Dauwpunt
94% Vochtigheid



Wind
8 KM/U
5 MPH
2 M/S
4 KTS



100°
Oosten
Huidig weer

Nevel Nevel
Luchtdruk 1012.92 (hPa) - 29.91 (inHg)
Zicht 1.2 (mijl) - 2 (km)
Vliegveld
Vliegveld code EHGG

Locatie : Eelde Airport
Afstand: 32 (km)

Metar:
EHGG 260355Z AUTO 10004KT 2500 BR NCD 16/15 Q1013

Tijd: 26-09-2021 05:55 CEST